Baycat — WDA9210 — position and weather

sailwx.info

Track history (hours):
 
Tides and Currents Weather Stations Pressure Air Temp Water Temp Dewpoint Dewpoint Depression Visibility Wind Speed Wind Dir Waves Ship Positions

Baycat

Owner: TAURUS MARINE, SAN FRANCISCO, CA. More information available from US FCC via Universal Licensing System and Coast Guard Vessel Documentation Center.

Last reported at 2018-Jul-18 07:31 UTC. Time now 2018-Jul-18 14:31 UTC.
Position N 37°46' W 122°23'.

Length 14 m; draft 2 m.

Type: Tug. MMSI: 366862680.

Date/timePositionNaut miles runAvg speedWind from/ knotsBaromVisibWave heightAir tempDewpointWater temp
2018-Jul-18 07:31N 37°46' W 122°23'0 0.0
2018-Jul-18 07:30N 37°46' W 122°23'2 4.4
2018-Jul-18 07:00N 37°49' W 122°23'3 6.6
2018-Jul-18 06:31N 37°52' W 122°24'2 4.9
2018-Jul-18 06:01N 37°54' W 122°23'1 2.3
2018-Jul-18 05:31N 37°55' W 122°22'0 0.0
2018-Jul-18 05:01N 37°55' W 122°22'0 0.0
2018-Jul-18 04:31N 37°55' W 122°22'0 0.0
2018-Jul-18 04:00N 37°55' W 122°22'0 0.0
2018-Jul-18 03:30N 37°55' W 122°22'0 0.0
2018-Jul-18 03:01N 37°55' W 122°22'0 0.0
2018-Jul-18 02:30N 37°55' W 122°22'0 0.0
2018-Jul-18 02:01N 37°55' W 122°22'0 0.0
2018-Jul-18 01:30N 37°55' W 122°22'0 0.0
2018-Jul-18 01:00N 37°55' W 122°22'0 0.0
2018-Jul-18 00:31N 37°55' W 122°22'0 0.0
2018-Jul-18 00:00N 37°55' W 122°22'0 0.0
2018-Jul-17 23:31N 37°55' W 122°22'1 1.3
2018-Jul-17 23:00N 37°55' W 122°22'0 0.4
2018-Jul-17 22:31N 37°55' W 122°22'1 2.5
2018-Jul-17 22:00N 37°54' W 122°23'1 1.2
2018-Jul-17 21:30N 37°54' W 122°24'1 3.0
2018-Jul-17 21:01N 37°53' W 122°24'4 7.3
2018-Jul-17 20:30N 37°49' W 122°23'3 5.5
2018-Jul-17 20:00N 37°46' W 122°23'0 0.8
2018-Jul-17 19:30N 37°46' W 122°23'0 0.0
2018-Jul-16 21:43N 37°46' W 122°23'0 1.8
2018-Jul-16 21:31N 37°46' W 122°23'1 2.9
2018-Jul-16 21:00N 37°46' W 122°21'0 0.0
2018-Jul-16 19:56N 37°46' W 122°21'0 0.1
2018-Jul-16 19:30N 37°46' W 122°21'0 0.0
2018-Jul-16 19:00N 37°46' W 122°21'0 0.0
2018-Jul-16 18:30N 37°46' W 122°21'0 0.1
2018-Jul-16 18:00N 37°46' W 122°21'0 0.4
2018-Jul-16 17:30N 37°46' W 122°21'0 0.1
2018-Jul-16 17:00N 37°46' W 122°21'0 0.0
2018-Jul-16 16:30N 37°46' W 122°21'0 0.0
2018-Jul-16 16:00N 37°46' W 122°21'0 0.0
2018-Jul-16 15:30N 37°46' W 122°21'0 0.0
2018-Jul-16 15:00N 37°46' W 122°21'0 0.0
2018-Jul-16 14:30N 37°46' W 122°21'0 0.0
2018-Jul-16 14:00N 37°46' W 122°21'0 0.0
2018-Jul-16 13:31N 37°46' W 122°21'0 0.0
2018-Jul-16 13:00N 37°46' W 122°21'2 3.3
2018-Jul-16 12:30N 37°46' W 122°23'0 0.0
2018-Jul-16 12:00N 37°46' W 122°23'0 0.0
2018-Jul-16 11:30N 37°46' W 122°23'0 0.0
2018-Jul-16 11:00N 37°46' W 122°23'0 0.0
2018-Jul-16 10:31N 37°46' W 122°23'0 0.0
2018-Jul-16 10:00N 37°46' W 122°23'0 0.0
2018-Jul-16 09:30N 37°46' W 122°23'0 0.0
2018-Jul-16 09:01N 37°46' W 122°23'0 0.0
2018-Jul-16 08:30N 37°46' W 122°23'0 0.0
2018-Jul-16 08:00N 37°46' W 122°23'0 0.0
2018-Jul-16 07:30N 37°46' W 122°23'0 0.0
2018-Jul-16 07:00N 37°46' W 122°23'0 0.0
2018-Jul-16 06:30N 37°46' W 122°23'1 1.1
2018-Jul-16 06:00N 37°46' W 122°22'2 3.3
2018-Jul-16 05:30N 37°46' W 122°20'0 0.1
2018-Jul-16 05:00N 37°46' W 122°20'0 0.1
2018-Jul-16 04:30N 37°46' W 122°20'0 0.3
2018-Jul-16 04:00N 37°46' W 122°20'0 0.1
2018-Jul-16 03:30N 37°46' W 122°20'0 0.1
2018-Jul-16 03:00N 37°46' W 122°20'0 0.9
2018-Jul-16 02:30N 37°46' W 122°21'0 0.0
2018-Jul-16 02:00N 37°46' W 122°21'0 0.0
2018-Jul-16 01:30N 37°46' W 122°21'0 0.0
2018-Jul-16 01:00N 37°46' W 122°21'0 0.1
2018-Jul-16 00:30N 37°46' W 122°21'0 0.2
2018-Jul-16 00:00N 37°46' W 122°21'0 0.1
2018-Jul-15 23:30N 37°46' W 122°21'0 0.2
2018-Jul-15 23:00N 37°46' W 122°21'2 3.8
2018-Jul-15 22:30N 37°46' W 122°23'0 0.0
2018-Jul-15 22:00N 37°46' W 122°23'0 0.0
2018-Jul-15 21:30N 37°46' W 122°23'0 0.0
2018-Jul-15 13:50N 37°46' W 122°23'0 1.0
2018-Jul-15 13:30N 37°47' W 122°23'2 4.5
2018-Jul-15 13:00N 37°49' W 122°24'3 6.3
2018-Jul-15 12:30N 37°52' W 122°24'3 5.3
2018-Jul-15 12:01N 37°54' W 122°22'1 2.1
2018-Jul-15 11:30N 37°55' W 122°22'0 0.0
2018-Jul-15 11:01N 37°55' W 122°22'0 0.0
2018-Jul-15 10:30N 37°55' W 122°22'0 0.0
2018-Jul-15 10:00N 37°55' W 122°22'0 0.0
2018-Jul-15 09:30N 37°55' W 122°22'0 0.0
2018-Jul-15 09:00N 37°55' W 122°22'0 0.0
2018-Jul-15 08:30N 37°55' W 122°22'0 0.0
2018-Jul-15 08:01N 37°55' W 122°22'0 0.0
2018-Jul-15 07:31N 37°55' W 122°22'0 0.0
2018-Jul-15 07:01N 37°55' W 122°22'0 0.0
2018-Jul-15 06:30N 37°55' W 122°22'0 0.0
2018-Jul-15 06:00N 37°55' W 122°22'0 0.0
2018-Jul-15 05:30N 37°55' W 122°22'0 0.0
2018-Jul-15 05:00N 37°55' W 122°22'0 0.0
2018-Jul-15 04:30N 37°55' W 122°22'0 0.0
2018-Jul-15 04:00N 37°55' W 122°22'0 0.0
2018-Jul-15 03:30N 37°55' W 122°22'0 0.0
2018-Jul-15 03:00N 37°55' W 122°22'0 0.0
2018-Jul-15 02:31N 37°55' W 122°22'0 0.0
2018-Jul-15 02:00N 37°55' W 122°22'0 0.0
2018-Jul-15 01:30N 37°55' W 122°22'0 0.0
2018-Jul-15 01:00N 37°55' W 122°22'0 1.0
2018-Jul-15 00:31N 37°55' W 122°22'2 4.3
2018-Jul-15 00:01N 37°54' W 122°24'4 8.1
2018-Jul-14 23:31N 37°50' W 122°23'3 6.5
2018-Jul-14 23:01N 37°46' W 122°23'0 0.0
2018-Jul-14 22:31N 37°46' W 122°23'1 1.8
2018-Jul-14 22:00N 37°46' W 122°22'2 4.4
2018-Jul-14 21:30N 37°44' W 122°20'0 0.4
2018-Jul-14 21:01N 37°44' W 122°20'0 0.0
2018-Jul-14 20:30N 37°44' W 122°20'0 0.0
2018-Jul-14 20:00N 37°44' W 122°20'0 0.0
2018-Jul-14 19:30N 37°44' W 122°20'0 0.0
2018-Jul-14 19:00N 37°44' W 122°20'0 0.0
2018-Jul-14 18:30N 37°44' W 122°20'0 0.0
2018-Jul-14 18:00N 37°44' W 122°20'0 0.0
2018-Jul-14 17:31N 37°44' W 122°20'3 5.9
2018-Jul-14 17:00N 37°47' W 122°22'3 5.0
2018-Jul-14 16:30N 37°49' W 122°24'0 0.0
2018-Jul-14 16:01N 37°49' W 122°24'0 0.0
2018-Jul-14 15:30N 37°49' W 122°24'0 0.0
2018-Jul-14 15:00N 37°49' W 122°24'0 0.4
2018-Jul-14 14:01N 37°48' W 122°24'2 4.0
2018-Jul-14 13:31N 37°46' W 122°23'0 0.0
2018-Jul-14 03:14N 37°46' W 122°23'0 1.1
2018-Jul-14 03:01N 37°47' W 122°23'3 6.4
2018-Jul-14 02:30N 37°44' W 122°21'0 0.1
2018-Jul-14 02:00N 37°44' W 122°21'0 0.1
2018-Jul-14 01:29N 37°44' W 122°21'0 0.0
2018-Jul-14 01:00N 37°44' W 122°21'0 0.0
2018-Jul-14 00:30N 37°44' W 122°21'0 0.0
2018-Jul-14 00:00N 37°44' W 122°21'0 0.0
2018-Jul-13 23:30N 37°44' W 122°21'2 3.3
2018-Jul-13 23:00N 37°45' W 122°22'2 3.3
2018-Jul-13 22:31N 37°46' W 122°23'0 0.0
2018-Jul-13 22:00N 37°46' W 122°23'0 0.0
2018-Jul-13 18:15N 37°46' W 122°23'0 0.1
2018-Jul-13 18:00N 37°46' W 122°23'2 4.9
2018-Jul-13 17:30N 37°46' W 122°20'0 0.6
2018-Jul-13 17:00N 37°45' W 122°20'0 0.0
2018-Jul-13 16:30N 37°45' W 122°20'0 0.1
2018-Jul-13 16:00N 37°45' W 122°20'0 0.0
2018-Jul-13 15:30N 37°45' W 122°20'1 2.2
2018-Jul-13 15:00N 37°44' W 122°20'0 0.2
2018-Jul-13 14:00N 37°44' W 122°20'0 0.0
2018-Jul-13 13:30N 37°44' W 122°20'0 0.0
2018-Jul-13 13:00N 37°44' W 122°20'0 0.0
2018-Jul-13 12:30N 37°44' W 122°20'0 0.6
2018-Jul-13 12:00N 37°45' W 122°20'2 3.5
2018-Jul-13 11:30N 37°46' W 122°22'1 2.9
2018-Jul-13 11:00N 37°47' W 122°23'2 4.9
2018-Jul-13 10:30N 37°50' W 122°24'4 7.6
2018-Jul-13 10:00N 37°53' W 122°24'2 4.5
2018-Jul-13 09:30N 37°55' W 122°22'1 1.2
2018-Jul-13 09:00N 37°55' W 122°22'0 0.0
2018-Jul-13 08:30N 37°55' W 122°22'0 0.0
2018-Jul-13 08:00N 37°55' W 122°22'0 0.0
2018-Jul-13 07:30N 37°55' W 122°22'0 0.0
2018-Jul-13 07:00N 37°55' W 122°22'0 0.0
2018-Jul-13 06:30N 37°55' W 122°22'0 0.0
2018-Jul-13 06:00N 37°55' W 122°22'0 0.0
2018-Jul-13 05:30N 37°55' W 122°22'0 0.0
2018-Jul-13 05:00N 37°55' W 122°22'0 0.0
2018-Jul-13 04:30N 37°55' W 122°22'0 0.0
2018-Jul-13 04:00N 37°55' W 122°22'1 1.4
2018-Jul-13 03:30N 37°55' W 122°22'0 0.0
2018-Jul-13 03:00N 37°55' W 122°22'0 0.0
2018-Jul-13 02:30N 37°55' W 122°22'0 0.0
2018-Jul-13 02:00N 37°55' W 122°22'0 0.0
2018-Jul-13 01:30N 37°55' W 122°22'0 0.0
2018-Jul-13 01:00N 37°55' W 122°22'0 0.0
2018-Jul-13 00:30N 37°55' W 122°22'0 0.0
2018-Jul-13 00:00N 37°55' W 122°22'0 0.0
2018-Jul-12 23:30N 37°55' W 122°22'0 0.0
2018-Jul-12 23:00N 37°55' W 122°22'1 2.0
2018-Jul-12 22:30N 37°54' W 122°23'3 5.7
2018-Jul-12 22:00N 37°51' W 122°24'4 8.3
2018-Jul-12 21:30N 37°47' W 122°23'1 1.8
2018-Jul-12 21:00N 37°47' W 122°23'2 3.2
2018-Jul-12 20:30N 37°46' W 122°21'0 0.2
2018-Jul-12 20:00N 37°46' W 122°21'0 0.0
2018-Jul-12 19:30N 37°46' W 122°21'0 0.1
2018-Jul-12 19:00N 37°46' W 122°21'0 0.0
2018-Jul-12 18:30N 37°46' W 122°21'0 0.5
2018-Jul-12 18:00N 37°46' W 122°21'2 4.0
2018-Jul-12 17:30N 37°46' W 122°23'0 0.0
2018-Jul-12 17:00N 37°46' W 122°23'0 0.0
2018-Jul-12 00:30N 37°46' W 122°23'0 0.0
2018-Jul-11 23:26N 37°46' W 122°23'0 0.2
2018-Jul-11 23:01N 37°46' W 122°23'0 0.0
2018-Jul-11 22:29N 37°46' W 122°23'0 0.0
2018-Jul-11 22:00N 37°46' W 122°23'0 0.0
2018-Jul-11 21:30N 37°46' W 122°23'0 0.1
2018-Jul-11 21:00N 37°46' W 122°23'0 0.0
2018-Jul-11 20:31N 37°46' W 122°23'0 0.3
2018-Jul-11 20:01N 37°46' W 122°23'2 4.4
2018-Jul-11 19:30N 37°45' W 122°21'0 0.0
2018-Jul-11 19:00N 37°45' W 122°21'0 0.1
2018-Jul-11 18:30N 37°45' W 122°21'0 0.0
2018-Jul-11 18:01N 37°45' W 122°21'0 0.7
2018-Jul-11 17:28N 37°46' W 122°21'3 6.1
2018-Jul-11 17:01N 37°48' W 122°22'0 0.0
2018-Jul-11 16:31N 37°48' W 122°22'0 0.0
2018-Jul-11 16:01N 37°48' W 122°22'0 0.0
2018-Jul-11 15:29N 37°48' W 122°22'0 0.0
2018-Jul-11 15:00N 37°48' W 122°22'0 0.2
2018-Jul-11 14:31N 37°48' W 122°22'2 4.5
2018-Jul-11 14:00N 37°46' W 122°23'0 0.0
2018-Jul-11 03:42N 37°46' W 122°23'0 0.6
2018-Jul-11 03:30N 37°47' W 122°23'3 5.4
2018-Jul-11 03:01N 37°45' W 122°20'0 0.0
2018-Jul-11 02:30N 37°45' W 122°20'0 0.0
2018-Jul-11 02:00N 37°45' W 122°20'0 0.0
2018-Jul-11 01:30N 37°45' W 122°20'0 0.0
2018-Jul-11 01:00N 37°45' W 122°20'0 0.1
2018-Jul-11 00:30N 37°45' W 122°20'0 0.3
2018-Jul-11 00:00N 37°45' W 122°20'2 3.8
2018-Jul-10 23:29N 37°43' W 122°20'0 0.2
2018-Jul-10 23:00N 37°43' W 122°20'0 0.2
2018-Jul-10 22:30N 37°43' W 122°20'0 0.1
2018-Jul-10 22:00N 37°43' W 122°20'0 0.0
2018-Jul-10 21:30N 37°43' W 122°20'0 0.0
2018-Jul-10 21:00N 37°43' W 122°20'0 0.0
2018-Jul-10 20:30N 37°43' W 122°20'1 1.8
2018-Jul-10 20:01N 37°44' W 122°20'3 6.8
2018-Jul-10 19:30N 37°46' W 122°23'0 0.0
2018-Jul-10 19:00N 37°46' W 122°23'0 0.0
2018-Jul-10 18:30N 37°46' W 122°23'0 0.0
2018-Jul-10 18:00N 37°46' W 122°23'0 0.2
2018-Jul-10 17:30N 37°47' W 122°23'3 6.6
2018-Jul-10 17:01N 37°48' W 122°19'0 0.6
2018-Jul-10 16:30N 37°48' W 122°19'0 0.1
2018-Jul-10 16:00N 37°48' W 122°19'0 0.1
2018-Jul-10 15:30N 37°48' W 122°19'0 0.1
2018-Jul-10 15:00N 37°48' W 122°19'0 0.1
2018-Jul-10 14:30N 37°48' W 122°19'0 0.0
2018-Jul-10 14:00N 37°48' W 122°19'2 3.0
2018-Jul-10 13:31N 37°48' W 122°21'3 5.0
2018-Jul-10 13:00N 37°46' W 122°23'0 0.0
2018-Jul-09 17:04N 37°46' W 122°23'0 0.0
2018-Jul-09 17:00N 37°46' W 122°23'0 0.0
2018-Jul-09 16:30N 37°46' W 122°23'  
Track history (hours):
 
Tides and Currents Weather Stations Pressure Air Temp Water Temp Dewpoint Dewpoint Depression Visibility Wind Speed Wind Dir Waves Ship Positions

Baycat

Owner: TAURUS MARINE, SAN FRANCISCO, CA. More information available from US FCC via Universal Licensing System and Coast Guard Vessel Documentation Center.

Last reported at 2018-Jul-18 07:31 UTC. Time now 2018-Jul-18 14:31 UTC.
Position N 37°46' W 122°23'.

Length 14 m; draft 2 m.

Type: Tug. MMSI: 366862680.

Date/timePositionNaut miles runAvg speedWind from/ knotsBaromVisibWave heightAir tempDewpointWater temp
2018-Jul-18 07:31N 37°46' W 122°23'0 0.0
2018-Jul-18 07:30N 37°46' W 122°23'2 4.4
2018-Jul-18 07:00N 37°49' W 122°23'3 6.6
2018-Jul-18 06:31N 37°52' W 122°24'2 4.9
2018-Jul-18 06:01N 37°54' W 122°23'1 2.3
2018-Jul-18 05:31N 37°55' W 122°22'0 0.0
2018-Jul-18 05:01N 37°55' W 122°22'0 0.0
2018-Jul-18 04:31N 37°55' W 122°22'0 0.0
2018-Jul-18 04:00N 37°55' W 122°22'0 0.0
2018-Jul-18 03:30N 37°55' W 122°22'0 0.0
2018-Jul-18 03:01N 37°55' W 122°22'0 0.0
2018-Jul-18 02:30N 37°55' W 122°22'0 0.0
2018-Jul-18 02:01N 37°55' W 122°22'0 0.0
2018-Jul-18 01:30N 37°55' W 122°22'0 0.0
2018-Jul-18 01:00N 37°55' W 122°22'0 0.0
2018-Jul-18 00:31N 37°55' W 122°22'0 0.0
2018-Jul-18 00:00N 37°55' W 122°22'0 0.0
2018-Jul-17 23:31N 37°55' W 122°22'1 1.3
2018-Jul-17 23:00N 37°55' W 122°22'0 0.4
2018-Jul-17 22:31N 37°55' W 122°22'1 2.5
2018-Jul-17 22:00N 37°54' W 122°23'1 1.2
2018-Jul-17 21:30N 37°54' W 122°24'1 3.0
2018-Jul-17 21:01N 37°53' W 122°24'4 7.3
2018-Jul-17 20:30N 37°49' W 122°23'3 5.5
2018-Jul-17 20:00N 37°46' W 122°23'0 0.8
2018-Jul-17 19:30N 37°46' W 122°23'0 0.0
2018-Jul-16 21:43N 37°46' W 122°23'0 1.8
2018-Jul-16 21:31N 37°46' W 122°23'1 2.9
2018-Jul-16 21:00N 37°46' W 122°21'0 0.0
2018-Jul-16 19:56N 37°46' W 122°21'0 0.1
2018-Jul-16 19:30N 37°46' W 122°21'0 0.0
2018-Jul-16 19:00N 37°46' W 122°21'0 0.0
2018-Jul-16 18:30N 37°46' W 122°21'0 0.1
2018-Jul-16 18:00N 37°46' W 122°21'0 0.4
2018-Jul-16 17:30N 37°46' W 122°21'0 0.1
2018-Jul-16 17:00N 37°46' W 122°21'0 0.0
2018-Jul-16 16:30N 37°46' W 122°21'0 0.0
2018-Jul-16 16:00N 37°46' W 122°21'0 0.0
2018-Jul-16 15:30N 37°46' W 122°21'0 0.0
2018-Jul-16 15:00N 37°46' W 122°21'0 0.0
2018-Jul-16 14:30N 37°46' W 122°21'0 0.0
2018-Jul-16 14:00N 37°46' W 122°21'0 0.0
2018-Jul-16 13:31N 37°46' W 122°21'0 0.0
2018-Jul-16 13:00N 37°46' W 122°21'2 3.3
2018-Jul-16 12:30N 37°46' W 122°23'0 0.0
2018-Jul-16 12:00N 37°46' W 122°23'0 0.0
2018-Jul-16 11:30N 37°46' W 122°23'0 0.0
2018-Jul-16 11:00N 37°46' W 122°23'0 0.0
2018-Jul-16 10:31N 37°46' W 122°23'0 0.0
2018-Jul-16 10:00N 37°46' W 122°23'0 0.0
2018-Jul-16 09:30N 37°46' W 122°23'0 0.0
2018-Jul-16 09:01N 37°46' W 122°23'0 0.0
2018-Jul-16 08:30N 37°46' W 122°23'0 0.0
2018-Jul-16 08:00N 37°46' W 122°23'0 0.0
2018-Jul-16 07:30N 37°46' W 122°23'0 0.0
2018-Jul-16 07:00N 37°46' W 122°23'0 0.0
2018-Jul-16 06:30N 37°46' W 122°23'1 1.1
2018-Jul-16 06:00N 37°46' W 122°22'2 3.3
2018-Jul-16 05:30N 37°46' W 122°20'0 0.1
2018-Jul-16 05:00N 37°46' W 122°20'0 0.1
2018-Jul-16 04:30N 37°46' W 122°20'0 0.3
2018-Jul-16 04:00N 37°46' W 122°20'0 0.1
2018-Jul-16 03:30N 37°46' W 122°20'0 0.1
2018-Jul-16 03:00N 37°46' W 122°20'0 0.9
2018-Jul-16 02:30N 37°46' W 122°21'0 0.0
2018-Jul-16 02:00N 37°46' W 122°21'0 0.0
2018-Jul-16 01:30N 37°46' W 122°21'0 0.0
2018-Jul-16 01:00N 37°46' W 122°21'0 0.1
2018-Jul-16 00:30N 37°46' W 122°21'0 0.2
2018-Jul-16 00:00N 37°46' W 122°21'0 0.1
2018-Jul-15 23:30N 37°46' W 122°21'0 0.2
2018-Jul-15 23:00N 37°46' W 122°21'2 3.8
2018-Jul-15 22:30N 37°46' W 122°23'0 0.0
2018-Jul-15 22:00N 37°46' W 122°23'0 0.0
2018-Jul-15 21:30N 37°46' W 122°23'0 0.0
2018-Jul-15 13:50N 37°46' W 122°23'0 1.0
2018-Jul-15 13:30N 37°47' W 122°23'2 4.5
2018-Jul-15 13:00N 37°49' W 122°24'3 6.3
2018-Jul-15 12:30N 37°52' W 122°24'3 5.3
2018-Jul-15 12:01N 37°54' W 122°22'1 2.1
2018-Jul-15 11:30N 37°55' W 122°22'0 0.0
2018-Jul-15 11:01N 37°55' W 122°22'0 0.0
2018-Jul-15 10:30N 37°55' W 122°22'0 0.0
2018-Jul-15 10:00N 37°55' W 122°22'0 0.0
2018-Jul-15 09:30N 37°55' W 122°22'0 0.0
2018-Jul-15 09:00N 37°55' W 122°22'0 0.0
2018-Jul-15 08:30N 37°55' W 122°22'0 0.0
2018-Jul-15 08:01N 37°55' W 122°22'0 0.0
2018-Jul-15 07:31N 37°55' W 122°22'0 0.0
2018-Jul-15 07:01N 37°55' W 122°22'0 0.0
2018-Jul-15 06:30N 37°55' W 122°22'0 0.0
2018-Jul-15 06:00N 37°55' W 122°22'0 0.0
2018-Jul-15 05:30N 37°55' W 122°22'0 0.0
2018-Jul-15 05:00N 37°55' W 122°22'0 0.0
2018-Jul-15 04:30N 37°55' W 122°22'0 0.0
2018-Jul-15 04:00N 37°55' W 122°22'0 0.0
2018-Jul-15 03:30N 37°55' W 122°22'0 0.0
2018-Jul-15 03:00N 37°55' W 122°22'0 0.0
2018-Jul-15 02:31N 37°55' W 122°22'0 0.0
2018-Jul-15 02:00N 37°55' W 122°22'0 0.0
2018-Jul-15 01:30N 37°55' W 122°22'0 0.0
2018-Jul-15 01:00N 37°55' W 122°22'0 1.0
2018-Jul-15 00:31N 37°55' W 122°22'2 4.3
2018-Jul-15 00:01N 37°54' W 122°24'4 8.1
2018-Jul-14 23:31N 37°50' W 122°23'3 6.5
2018-Jul-14 23:01N 37°46' W 122°23'0 0.0
2018-Jul-14 22:31N 37°46' W 122°23'1 1.8
2018-Jul-14 22:00N 37°46' W 122°22'2 4.4
2018-Jul-14 21:30N 37°44' W 122°20'0 0.4
2018-Jul-14 21:01N 37°44' W 122°20'0 0.0
2018-Jul-14 20:30N 37°44' W 122°20'0 0.0
2018-Jul-14 20:00N 37°44' W 122°20'0 0.0
2018-Jul-14 19:30N 37°44' W 122°20'0 0.0
2018-Jul-14 19:00N 37°44' W 122°20'0 0.0
2018-Jul-14 18:30N 37°44' W 122°20'0 0.0
2018-Jul-14 18:00N 37°44' W 122°20'0 0.0
2018-Jul-14 17:31N 37°44' W 122°20'3 5.9
2018-Jul-14 17:00N 37°47' W 122°22'3 5.0
2018-Jul-14 16:30N 37°49' W 122°24'0 0.0
2018-Jul-14 16:01N 37°49' W 122°24'0 0.0
2018-Jul-14 15:30N 37°49' W 122°24'0 0.0
2018-Jul-14 15:00N 37°49' W 122°24'0 0.4
2018-Jul-14 14:01N 37°48' W 122°24'2 4.0
2018-Jul-14 13:31N 37°46' W 122°23'0 0.0
2018-Jul-14 03:14N 37°46' W 122°23'0 1.1
2018-Jul-14 03:01N 37°47' W 122°23'3 6.4
2018-Jul-14 02:30N 37°44' W 122°21'0 0.1
2018-Jul-14 02:00N 37°44' W 122°21'0 0.1
2018-Jul-14 01:29N 37°44' W 122°21'0 0.0
2018-Jul-14 01:00N 37°44' W 122°21'0 0.0
2018-Jul-14 00:30N 37°44' W 122°21'0 0.0
2018-Jul-14 00:00N 37°44' W 122°21'0 0.0
2018-Jul-13 23:30N 37°44' W 122°21'2 3.3
2018-Jul-13 23:00N 37°45' W 122°22'2 3.3
2018-Jul-13 22:31N 37°46' W 122°23'0 0.0
2018-Jul-13 22:00N 37°46' W 122°23'0 0.0
2018-Jul-13 18:15N 37°46' W 122°23'0 0.1
2018-Jul-13 18:00N 37°46' W 122°23'2 4.9
2018-Jul-13 17:30N 37°46' W 122°20'0 0.6
2018-Jul-13 17:00N 37°45' W 122°20'0 0.0
2018-Jul-13 16:30N 37°45' W 122°20'0 0.1
2018-Jul-13 16:00N 37°45' W 122°20'0 0.0
2018-Jul-13 15:30N 37°45' W 122°20'1 2.2
2018-Jul-13 15:00N 37°44' W 122°20'0 0.2
2018-Jul-13 14:00N 37°44' W 122°20'0 0.0
2018-Jul-13 13:30N 37°44' W 122°20'0 0.0
2018-Jul-13 13:00N 37°44' W 122°20'0 0.0
2018-Jul-13 12:30N 37°44' W 122°20'0 0.6
2018-Jul-13 12:00N 37°45' W 122°20'2 3.5
2018-Jul-13 11:30N 37°46' W 122°22'1 2.9
2018-Jul-13 11:00N 37°47' W 122°23'2 4.9
2018-Jul-13 10:30N 37°50' W 122°24'4 7.6
2018-Jul-13 10:00N 37°53' W 122°24'2 4.5
2018-Jul-13 09:30N 37°55' W 122°22'1 1.2
2018-Jul-13 09:00N 37°55' W 122°22'0 0.0
2018-Jul-13 08:30N 37°55' W 122°22'0 0.0
2018-Jul-13 08:00N 37°55' W 122°22'0 0.0
2018-Jul-13 07:30N 37°55' W 122°22'0 0.0
2018-Jul-13 07:00N 37°55' W 122°22'0 0.0
2018-Jul-13 06:30N 37°55' W 122°22'0 0.0
2018-Jul-13 06:00N 37°55' W 122°22'0 0.0
2018-Jul-13 05:30N 37°55' W 122°22'0 0.0
2018-Jul-13 05:00N 37°55' W 122°22'0 0.0
2018-Jul-13 04:30N 37°55' W 122°22'0 0.0
2018-Jul-13 04:00N 37°55' W 122°22'1 1.4
2018-Jul-13 03:30N 37°55' W 122°22'0 0.0
2018-Jul-13 03:00N 37°55' W 122°22'0 0.0
2018-Jul-13 02:30N 37°55' W 122°22'0 0.0
2018-Jul-13 02:00N 37°55' W 122°22'0 0.0
2018-Jul-13 01:30N 37°55' W 122°22'0 0.0
2018-Jul-13 01:00N 37°55' W 122°22'0 0.0
2018-Jul-13 00:30N 37°55' W 122°22'0 0.0
2018-Jul-13 00:00N 37°55' W 122°22'0 0.0
2018-Jul-12 23:30N 37°55' W 122°22'0 0.0
2018-Jul-12 23:00N 37°55' W 122°22'1 2.0
2018-Jul-12 22:30N 37°54' W 122°23'3 5.7
2018-Jul-12 22:00N 37°51' W 122°24'4 8.3
2018-Jul-12 21:30N 37°47' W 122°23'1 1.8
2018-Jul-12 21:00N 37°47' W 122°23'2 3.2
2018-Jul-12 20:30N 37°46' W 122°21'0 0.2
2018-Jul-12 20:00N 37°46' W 122°21'0 0.0
2018-Jul-12 19:30N 37°46' W 122°21'0 0.1
2018-Jul-12 19:00N 37°46' W 122°21'0 0.0
2018-Jul-12 18:30N 37°46' W 122°21'0 0.5
2018-Jul-12 18:00N 37°46' W 122°21'2 4.0
2018-Jul-12 17:30N 37°46' W 122°23'0 0.0
2018-Jul-12 17:00N 37°46' W 122°23'0 0.0
2018-Jul-12 00:30N 37°46' W 122°23'0 0.0
2018-Jul-11 23:26N 37°46' W 122°23'0 0.2
2018-Jul-11 23:01N 37°46' W 122°23'0 0.0
2018-Jul-11 22:29N 37°46' W 122°23'0 0.0
2018-Jul-11 22:00N 37°46' W 122°23'0 0.0
2018-Jul-11 21:30N 37°46' W 122°23'0 0.1
2018-Jul-11 21:00N 37°46' W 122°23'0 0.0
2018-Jul-11 20:31N 37°46' W 122°23'0 0.3
2018-Jul-11 20:01N 37°46' W 122°23'2 4.4
2018-Jul-11 19:30N 37°45' W 122°21'0 0.0
2018-Jul-11 19:00N 37°45' W 122°21'0 0.1
2018-Jul-11 18:30N 37°45' W 122°21'0 0.0
2018-Jul-11 18:01N 37°45' W 122°21'0 0.7
2018-Jul-11 17:28N 37°46' W 122°21'3 6.1
2018-Jul-11 17:01N 37°48' W 122°22'0 0.0
2018-Jul-11 16:31N 37°48' W 122°22'0 0.0
2018-Jul-11 16:01N 37°48' W 122°22'0 0.0
2018-Jul-11 15:29N 37°48' W 122°22'0 0.0
2018-Jul-11 15:00N 37°48' W 122°22'0 0.2
2018-Jul-11 14:31N 37°48' W 122°22'2 4.5
2018-Jul-11 14:00N 37°46' W 122°23'0 0.0
2018-Jul-11 03:42N 37°46' W 122°23'0 0.6
2018-Jul-11 03:30N 37°47' W 122°23'3 5.4
2018-Jul-11 03:01N 37°45' W 122°20'0 0.0
2018-Jul-11 02:30N 37°45' W 122°20'0 0.0
2018-Jul-11 02:00N 37°45' W 122°20'0 0.0
2018-Jul-11 01:30N 37°45' W 122°20'0 0.0
2018-Jul-11 01:00N 37°45' W 122°20'0 0.1
2018-Jul-11 00:30N 37°45' W 122°20'0 0.3
2018-Jul-11 00:00N 37°45' W 122°20'2 3.8
2018-Jul-10 23:29N 37°43' W 122°20'0 0.2
2018-Jul-10 23:00N 37°43' W 122°20'0 0.2
2018-Jul-10 22:30N 37°43' W 122°20'0 0.1
2018-Jul-10 22:00N 37°43' W 122°20'0 0.0
2018-Jul-10 21:30N 37°43' W 122°20'0 0.0
2018-Jul-10 21:00N 37°43' W 122°20'0 0.0
2018-Jul-10 20:30N 37°43' W 122°20'1 1.8
2018-Jul-10 20:01N 37°44' W 122°20'3 6.8
2018-Jul-10 19:30N 37°46' W 122°23'0 0.0
2018-Jul-10 19:00N 37°46' W 122°23'0 0.0
2018-Jul-10 18:30N 37°46' W 122°23'0 0.0
2018-Jul-10 18:00N 37°46' W 122°23'0 0.2
2018-Jul-10 17:30N 37°47' W 122°23'3 6.6
2018-Jul-10 17:01N 37°48' W 122°19'0 0.6
2018-Jul-10 16:30N 37°48' W 122°19'0 0.1
2018-Jul-10 16:00N 37°48' W 122°19'0 0.1
2018-Jul-10 15:30N 37°48' W 122°19'0 0.1
2018-Jul-10 15:00N 37°48' W 122°19'0 0.1
2018-Jul-10 14:30N 37°48' W 122°19'0 0.0
2018-Jul-10 14:00N 37°48' W 122°19'2 3.0
2018-Jul-10 13:31N 37°48' W 122°21'3 5.0
2018-Jul-10 13:00N 37°46' W 122°23'0 0.0
2018-Jul-09 17:04N 37°46' W 122°23'0 0.0
2018-Jul-09 17:00N 37°46' W 122°23'0 0.0
2018-Jul-09 16:30N 37°46' W 122°23'  

Dump ship's entire track history